Time;durP1;ratioP1;P1;durP2;ratioP2;P2;SDS_P1;SDS_P2;PMS_P1;PMS_P2;Temp;Humidity;BMP_temperature;BMP_pressure;BME280_temperature;BME280_humidity;BME280_pressure;Samples;Min_cycle;Max_cycle;Signal;HPM_P1;HPM_P2
2024/03/23 00:00:08;;;;;;;1.98;1.20;;;19.10;39.70;;;;;;6277777;28;20390;-75
2024/03/23 00:03:13;;;;;;;2.17;1.58;;;19.10;39.60;;;;;;6277099;28;20443;-76
2024/03/23 00:06:15;;;;;;;5.63;1.55;;;19.10;39.50;;;;;;6280692;28;20051;-75
2024/03/23 00:09:18;;;;;;;2.10;1.00;;;19.10;39.40;;;;;;6282052;28;20029;-76
2024/03/23 00:12:23;;;;;;;2.33;1.20;;;19.00;39.40;;;;;;6286243;28;20117;-75
2024/03/23 00:15:24;;;;;;;2.00;1.35;;;19.00;40.00;;;;;;6274727;28;20025;-76
2024/03/23 00:18:27;;;;;;;2.05;1.60;;;19.00;39.40;;;;;;6264065;28;20132;-75
2024/03/23 00:21:29;;;;;;;3.58;1.38;;;19.00;39.40;;;;;;6279627;28;20051;-76
2024/03/23 00:24:32;;;;;;;2.78;1.20;;;19.00;39.40;;;;;;6264067;28;20024;-75
2024/03/23 00:27:34;;;;;;;3.80;1.55;;;19.00;39.40;;;;;;6281388;28;20043;-75
2024/03/23 00:30:36;;;;;;;8.48;1.83;;;18.90;39.40;;;;;;6285856;28;20055;-75
2024/03/23 00:33:38;;;;;;;6.45;1.80;;;18.90;39.60;;;;;;6274454;28;20035;-75
2024/03/23 00:36:40;;;;;;;3.30;1.83;;;18.90;40.10;;;;;;6274094;28;20130;-75
2024/03/23 00:39:42;;;;;;;3.88;1.30;;;18.80;40.10;;;;;;6263454;28;20178;-76
2024/03/23 00:42:44;;;;;;;2.80;1.45;;;18.80;40.00;;;;;;6278342;28;20025;-74
2024/03/23 00:45:47;;;;;;;2.53;1.52;;;18.80;40.10;;;;;;6282640;28;20031;-75
2024/03/23 00:48:50;;;;;;;3.40;1.95;;;18.70;40.90;;;;;;6278411;28;20032;-75
2024/03/23 00:51:52;;;;;;;12.98;2.03;;;18.70;40.70;;;;;;6264770;28;20064;-75
2024/03/23 00:54:55;;;;;;;4.57;1.38;;;18.60;41.10;;;;;;6259805;28;20036;-75
2024/03/23 00:57:56;;;;;;;5.18;1.67;;;18.50;41.10;;;;;;6267995;28;20477;-76
2024/03/23 01:00:56;;;;;;;3.47;1.63;;;18.50;41.30;;;;;;6285875;28;20043;-74
2024/03/23 01:03:57;;;;;;;4.18;1.55;;;18.50;41.40;;;;;;6283586;28;20782;-76
2024/03/23 01:06:58;;;;;;;3.75;1.60;;;18.40;41.30;;;;;;6285115;28;20504;-75
2024/03/23 01:10:00;;;;;;;3.10;1.30;;;18.30;41.20;;;;;;6283617;28;20040;-75
2024/03/23 01:13:01;;;;;;;3.72;1.48;;;18.30;41.40;;;;;;6269601;28;20052;-75
2024/03/23 01:16:02;;;;;;;3.47;1.50;;;18.30;41.50;;;;;;6282978;28;20562;-75
2024/03/23 01:19:03;;;;;;;4.35;1.65;;;18.20;41.60;;;;;;6251043;28;20147;-75
2024/03/23 01:22:05;;;;;;;7.07;1.63;;;18.10;41.90;;;;;;6297108;28;20113;-74
2024/03/23 01:25:06;;;;;;;3.28;1.67;;;18.00;41.90;;;;;;6284269;28;20016;-74
2024/03/23 01:28:07;;;;;;;5.00;1.38;;;18.00;42.00;;;;;;6290967;28;20054;-75
2024/03/23 01:31:08;;;;;;;2.15;1.42;;;17.90;42.10;;;;;;6300991;28;20025;-75
2024/03/23 01:34:09;;;;;;;2.60;1.50;;;17.90;42.30;;;;;;6266139;28;20456;-73
2024/03/23 01:37:10;;;;;;;4.18;1.88;;;17.80;42.50;;;;;;6267407;28;20044;-76
2024/03/23 01:40:15;;;;;;;4.07;1.50;;;17.70;42.70;;;;;;6279561;28;20025;-75
2024/03/23 01:43:16;;;;;;;1.77;1.40;;;17.60;43.00;;;;;;6283076;28;20039;-77
2024/03/23 01:46:17;;;;;;;3.28;1.50;;;17.60;43.00;;;;;;6282495;28;20029;-75
2024/03/23 01:49:19;;;;;;;2.28;1.33;;;17.60;43.30;;;;;;6265385;28;20051;-75
2024/03/23 01:52:19;;;;;;;3.80;1.60;;;17.50;43.30;;;;;;6282317;28;20350;-73
2024/03/23 01:55:20;;;;;;;2.47;1.45;;;17.50;43.30;;;;;;6276545;28;20043;-74
2024/03/23 01:58:25;;;;;;;1.95;1.10;;;17.50;43.30;;;;;;6282089;28;20036;-75
2024/03/23 02:01:26;;;;;;;2.95;1.27;;;17.50;43.30;;;;;;6294592;28;20027;-74
2024/03/23 02:04:27;;;;;;;3.85;1.45;;;17.50;43.30;;;;;;6279763;28;20048;-75
2024/03/23 02:07:28;;;;;;;3.63;1.75;;;17.40;43.40;;;;;;6291638;28;20020;-75
2024/03/23 02:10:30;;;;;;;5.28;2.05;;;17.40;43.50;;;;;;6282649;28;20040;-75
2024/03/23 02:13:31;;;;;;;2.58;1.38;;;17.40;43.60;;;;;;6281142;28;20051;-75
2024/03/23 02:16:35;;;;;;;2.55;1.75;;;17.30;43.80;;;;;;6265527;28;20508;-75
2024/03/23 02:19:36;;;;;;;4.68;1.67;;;17.30;43.90;;;;;;6283863;28;20016;-73
2024/03/23 02:22:38;;;;;;;4.20;1.55;;;17.30;44.00;;;;;;6272984;28;20410;-74
2024/03/23 02:25:39;;;;;;;7.07;1.95;;;17.30;44.10;;;;;;6273098;28;20027;-74
2024/03/23 02:28:39;;;;;;;11.35;1.65;;;17.30;44.30;;;;;;6286633;28;20104;-73
2024/03/23 02:31:41;;;;;;;3.80;1.90;;;17.30;44.40;;;;;;6283576;28;20039;-74
2024/03/23 02:34:42;;;;;;;8.23;2.33;;;17.40;44.40;;;;;;6282005;28;20916;-74
2024/03/23 02:37:43;;;;;;;4.05;1.80;;;17.20;44.30;;;;;;6284975;28;20055;-75
2024/03/23 02:40:44;;;;;;;11.55;2.38;;;17.40;44.40;;;;;;6280439;28;20506;-73
2024/03/23 02:43:44;;;;;;;2.92;1.90;;;17.50;44.50;;;;;;6288464;28;20032;-75
2024/03/23 02:46:45;;;;;;;6.28;1.83;;;17.50;44.40;;;;;;6286479;28;20422;-74
2024/03/23 02:49:46;;;;;;;6.00;2.55;;;17.50;44.20;;;;;;6287136;28;20025;-75
2024/03/23 02:52:48;;;;;;;4.70;2.15;;;17.70;44.30;;;;;;6281125;28;20395;-74
2024/03/23 02:55:50;;;;;;;8.18;2.20;;;17.50;44.20;;;;;;6277192;28;20028;-74
2024/03/23 02:58:52;;;;;;;5.72;2.17;;;17.50;44.30;;;;;;6264840;28;20357;-75
2024/03/23 03:01:53;;;;;;;5.15;2.08;;;17.50;44.40;;;;;;6280964;28;20122;-74
2024/03/23 03:04:54;;;;;;;3.97;2.17;;;17.50;44.50;;;;;;6280224;28;20564;-74
2024/03/23 03:07:55;;;;;;;3.13;2.05;;;17.50;44.60;;;;;;6239817;28;20029;-74
2024/03/23 03:10:56;;;;;;;4.32;2.10;;;17.40;44.60;;;;;;6280788;28;20445;-74
2024/03/23 03:13:57;;;;;;;4.38;1.90;;;17.40;45.30;;;;;;6282930;28;20644;-75
2024/03/23 03:16:57;;;;;;;3.03;1.50;;;17.40;44.60;;;;;;6266600;28;20035;-75
2024/03/23 03:19:59;;;;;;;10.25;1.83;;;17.40;44.70;;;;;;6282655;28;20052;-76
2024/03/23 03:23:00;;;;;;;5.55;2.10;;;17.40;44.80;;;;;;6281097;28;20116;-74
2024/03/23 03:26:01;;;;;;;5.43;1.85;;;17.50;44.80;;;;;;6281873;28;20106;-74
2024/03/23 03:29:02;;;;;;;6.88;1.38;;;17.50;44.70;;;;;;6275348;28;20052;-75
2024/03/23 03:32:03;;;;;;;1.88;1.02;;;17.50;44.50;;;;;;6268766;28;20027;-74
2024/03/23 03:35:05;;;;;;;1.70;1.13;;;17.60;44.40;;;;;;6263969;28;20720;-75
2024/03/23 03:38:05;;;;;;;2.35;1.60;;;17.60;44.10;;;;;;6216956;28;20044;-75
2024/03/23 03:41:06;;;;;;;2.60;1.27;;;17.60;43.90;;;;;;6277534;28;20061;-75
2024/03/23 03:44:07;;;;;;;1.38;1.05;;;17.60;43.70;;;;;;6280566;28;20032;-74
2024/03/23 03:47:08;;;;;;;3.60;1.40;;;17.60;43.40;;;;;;6293906;28;20480;-75
2024/03/23 03:50:09;;;;;;;1.75;1.25;;;17.70;43.20;;;;;;6287052;28;20485;-75
2024/03/23 03:53:10;;;;;;;3.58;1.00;;;17.70;43.10;;;;;;6268412;28;20080;-75
2024/03/23 03:56:11;;;;;;;2.55;1.23;;;17.70;43.00;;;;;;6281463;28;20083;-75
2024/03/23 03:59:14;;;;;;;1.75;1.33;;;17.70;42.90;;;;;;6279131;28;20111;-75
2024/03/23 04:02:15;;;;;;;2.75;1.20;;;17.70;43.00;;;;;;6279978;28;20024;-75
2024/03/23 04:05:16;;;;;;;1.98;1.00;;;17.60;43.00;;;;;;6277758;28;20013;-74
2024/03/23 04:08:18;;;;;;;1.92;1.27;;;17.70;43.10;;;;;;6264173;28;20453;-75
2024/03/23 04:11:19;;;;;;;5.32;1.20;;;17.70;43.10;;;;;;6279921;28;20735;-76
2024/03/23 04:14:20;;;;;;;6.00;1.02;;;17.70;43.30;;;;;;6281828;28;20115;-76
2024/03/23 04:17:22;;;;;;;2.10;1.20;;;17.80;43.40;;;;;;6280911;28;20063;-74
2024/03/23 04:20:22;;;;;;;4.50;1.45;;;17.80;43.50;;;;;;6282416;28;20069;-74
2024/03/23 04:23:24;;;;;;;1.35;0.95;;;17.80;43.60;;;;;;6286797;28;20025;-74
2024/03/23 04:26:42;;;;;;;3.42;1.30;;;17.80;43.70;;;;;;6285172;28;20028;-75
2024/03/23 04:29:50;;;;;;;3.20;1.40;;;17.70;43.80;;;;;;6286509;28;20174;-75
2024/03/23 04:32:51;;;;;;;8.07;1.38;;;17.80;44.10;;;;;;6284995;28;20023;-75
2024/03/23 04:35:52;;;;;;;3.10;1.30;;;17.60;44.40;;;;;;6285583;28;20444;-75
2024/03/23 04:38:52;;;;;;;1.85;1.08;;;17.60;44.60;;;;;;6279772;28;20037;-75
2024/03/23 04:41:55;;;;;;;3.15;1.40;;;17.50;45.50;;;;;;6283723;28;20558;-74
2024/03/23 04:44:56;;;;;;;5.50;1.17;;;17.50;45.30;;;;;;6247316;28;20045;-75
2024/03/23 04:47:58;;;;;;;2.50;1.23;;;17.40;45.60;;;;;;6278377;28;20020;-75
2024/03/23 04:51:00;;;;;;;6.00;1.80;;;17.30;46.40;;;;;;6286891;28;20467;-77
2024/03/23 04:54:01;;;;;;;6.05;1.70;;;17.20;47.60;;;;;;6277715;28;20067;-75
2024/03/23 04:57:02;;;;;;;9.02;1.58;;;17.10;48.10;;;;;;6286997;28;20036;-75
2024/03/23 05:00:12;;;;;;;6.55;2.20;;;17.00;48.90;;;;;;6284204;28;20062;-75
2024/03/23 05:03:13;;;;;;;5.05;1.88;;;16.90;49.30;;;;;;6286806;28;20012;-74
2024/03/23 05:06:15;;;;;;;3.60;1.70;;;16.80;49.60;;;;;;6275159;28;20432;-74
2024/03/23 05:09:18;;;;;;;8.20;1.80;;;16.80;49.90;;;;;;6284298;28;20064;-74
2024/03/23 05:12:19;;;;;;;6.45;2.40;;;16.80;50.30;;;;;;6283501;28;20064;-75
2024/03/23 05:15:19;;;;;;;6.57;2.28;;;16.80;50.40;;;;;;6262044;28;20080;-76
2024/03/23 05:18:22;;;;;;;4.10;1.85;;;16.80;50.50;;;;;;6283873;28;20025;-75
2024/03/23 05:21:24;;;;;;;5.45;2.00;;;16.80;51.00;;;;;;6282394;28;20369;-74
2024/03/23 05:24:24;;;;;;;4.30;2.10;;;16.80;51.30;;;;;;6266983;28;20051;-74
2024/03/23 05:27:25;;;;;;;12.07;2.20;;;16.70;51.80;;;;;;6283956;28;20182;-75
2024/03/23 05:30:29;;;;;;;5.63;2.33;;;16.70;52.20;;;;;;6281471;28;20026;-75
2024/03/23 05:33:29;;;;;;;6.45;2.28;;;16.70;52.20;;;;;;6283440;28;21439;-75
2024/03/23 05:36:32;;;;;;;12.88;2.60;;;16.80;52.20;;;;;;6274973;28;20109;-76
2024/03/23 05:39:33;;;;;;;8.40;2.42;;;16.80;52.00;;;;;;6281558;28;20024;-75
2024/03/23 05:42:35;;;;;;;3.85;1.63;;;16.70;52.20;;;;;;6283011;28;20098;-74
2024/03/23 05:45:36;;;;;;;3.20;1.88;;;16.70;52.80;;;;;;6266011;28;20396;-75
2024/03/23 05:48:37;;;;;;;6.63;2.00;;;16.60;53.00;;;;;;6285955;28;20044;-75
2024/03/23 05:51:38;;;;;;;5.53;2.55;;;16.70;53.00;;;;;;6278353;28;20034;-75
2024/03/23 05:54:39;;;;;;;10.13;2.67;;;16.70;53.10;;;;;;6282997;28;20520;-73
2024/03/23 05:57:43;;;;;;;18.00;3.17;;;16.70;53.50;;;;;;6265920;28;20052;-76
2024/03/23 06:00:44;;;;;;;10.27;3.35;;;16.60;54.00;;;;;;6283093;28;20081;-74
2024/03/23 06:03:46;;;;;;;8.57;2.78;;;16.60;54.20;;;;;;6270923;28;20024;-75
2024/03/23 06:06:46;;;;;;;11.75;3.15;;;16.50;54.40;;;;;;6272706;28;20077;-75
2024/03/23 06:09:47;;;;;;;14.20;3.72;;;16.50;54.50;;;;;;6273286;28;20016;-76
2024/03/23 06:12:50;;;;;;;7.35;3.10;;;16.50;54.70;;;;;;6272720;28;20025;-75
2024/03/23 06:15:52;;;;;;;7.25;3.45;;;16.50;55.10;;;;;;6291299;28;20091;-75
2024/03/23 06:18:55;;;;;;;10.75;3.95;;;16.50;55.60;;;;;;6273635;28;20054;-75
2024/03/23 06:21:56;;;;;;;5.72;3.13;;;16.60;55.80;;;;;;6297048;28;20038;-75
2024/03/23 06:24:59;;;;;;;4.28;2.58;;;16.60;55.90;;;;;;6292724;28;20097;-75
2024/03/23 06:28:03;;;;;;;3.90;1.75;;;16.70;55.90;;;;;;6273223;28;20024;-76
2024/03/23 06:31:09;;;;;;;13.65;2.70;;;16.90;55.40;;;;;;6273245;28;20028;-77
2024/03/23 06:34:10;;;;;;;8.93;2.78;;;17.20;54.40;;;;;;6302798;28;20026;-76
2024/03/23 06:37:12;;;;;;;9.85;2.28;;;17.50;53.50;;;;;;6270868;28;20127;-77
2024/03/23 06:40:12;;;;;;;4.65;2.50;;;17.80;52.80;;;;;;6288132;28;20016;-77
2024/03/23 06:43:14;;;;;;;5.75;2.85;;;18.00;52.80;;;;;;6291907;28;20020;-76
2024/03/23 06:46:14;;;;;;;9.48;3.15;;;18.20;51.70;;;;;;6272458;28;20042;-77
2024/03/23 06:49:15;;;;;;;6.43;2.90;;;18.30;51.60;;;;;;6286069;28;20021;-76
2024/03/23 06:52:17;;;;;;;6.68;3.60;;;18.40;51.40;;;;;;6256826;28;20037;-77
2024/03/23 06:55:18;;;;;;;7.45;3.03;;;18.50;51.30;;;;;;6282625;28;20100;-77
2024/03/23 06:58:20;;;;;;;5.97;3.30;;;18.60;51.20;;;;;;6270483;28;20040;-76
2024/03/23 07:01:22;;;;;;;10.80;3.35;;;18.70;51.20;;;;;;6277675;28;20400;-75
2024/03/23 07:04:24;;;;;;;8.00;3.45;;;18.80;51.10;;;;;;6283720;28;20032;-77
2024/03/23 07:07:25;;;;;;;6.70;3.60;;;18.80;51.20;;;;;;6281398;28;20048;-75
2024/03/23 07:10:26;;;;;;;8.30;4.00;;;18.80;51.20;;;;;;6306662;28;20070;-76
2024/03/23 07:13:27;;;;;;;8.82;4.03;;;18.80;51.20;;;;;;6294757;28;20087;-76
2024/03/23 07:16:28;;;;;;;6.93;4.00;;;18.80;51.20;;;;;;6289487;28;20261;-77
2024/03/23 07:19:29;;;;;;;11.38;4.38;;;18.70;51.50;;;;;;6286715;28;20377;-78
2024/03/23 07:22:31;;;;;;;5.32;3.42;;;18.60;51.60;;;;;;6291791;28;20023;-78
2024/03/23 07:25:32;;;;;;;10.00;3.60;;;18.50;51.70;;;;;;6267336;28;20024;-78
2024/03/23 07:28:35;;;;;;;10.75;3.55;;;18.40;51.40;;;;;;6292721;28;20032;-78
2024/03/23 07:31:36;;;;;;;6.60;3.65;;;18.30;51.60;;;;;;6290937;28;20016;-77
2024/03/23 07:34:40;;;;;;;9.43;3.60;;;18.30;51.40;;;;;;6273925;28;20377;-77
2024/03/23 07:37:42;;;;;;;11.15;2.60;;;18.20;51.20;;;;;;6291069;28;20106;-77
2024/03/23 07:40:43;;;;;;;7.90;2.83;;;18.20;50.80;;;;;;6292000;28;20350;-78
2024/03/23 07:43:45;;;;;;;5.82;2.67;;;18.20;50.60;;;;;;6289129;28;20094;-76
2024/03/23 07:46:45;;;;;;;5.28;2.80;;;18.20;50.90;;;;;;6275007;28;20012;-78
2024/03/23 07:49:47;;;;;;;4.30;2.53;;;18.20;50.80;;;;;;6287847;28;20300;-77
2024/03/23 07:52:49;;;;;;;4.50;2.20;;;18.30;50.30;;;;;;6256811;28;20047;-78
2024/03/23 07:56:01;;;;;;;5.85;2.47;;;18.30;49.60;;;;;;6271314;28;20021;-79
2024/03/23 07:59:05;;;;;;;7.15;2.38;;;18.20;48.80;;;;;;6290992;28;20047;-79
2024/03/23 08:02:06;;;;;;;6.80;2.45;;;18.20;48.40;;;;;;6291743;28;20109;-78
2024/03/23 08:05:09;;;;;;;4.88;2.10;;;18.10;48.10;;;;;;6294066;28;20500;-78
2024/03/23 08:08:10;;;;;;;5.68;2.60;;;18.10;48.30;;;;;;6290100;28;20024;-77
2024/03/23 08:11:11;;;;;;;4.70;2.65;;;18.10;48.20;;;;;;6290808;28;20103;-79
2024/03/23 08:14:15;;;;;;;4.05;2.05;;;18.10;48.20;;;;;;6294731;28;20032;-78
2024/03/23 08:17:16;;;;;;;6.43;2.67;;;18.10;48.20;;;;;;6272525;28;20032;-77
2024/03/23 08:20:16;;;;;;;4.93;3.17;;;18.10;48.00;;;;;;6289665;28;20491;-78
2024/03/23 08:23:19;;;;;;;3.40;2.35;;;18.10;48.10;;;;;;6293789;28;20053;-78
2024/03/23 08:26:20;;;;;;;5.20;2.22;;;18.10;48.00;;;;;;6294230;28;20020;-78
2024/03/23 08:29:21;;;;;;;4.65;2.00;;;18.10;47.70;;;;;;6275353;28;20028;-76
2024/03/23 08:32:22;;;;;;;6.38;3.08;;;18.10;47.80;;;;;;6273620;28;20039;-77
2024/03/23 08:35:23;;;;;;;3.75;2.42;;;18.10;47.90;;;;;;6291548;28;20054;-77
2024/03/23 08:38:25;;;;;;;6.70;3.15;;;18.10;47.80;;;;;;6289551;28;20612;-78
2024/03/23 08:41:26;;;;;;;6.22;3.00;;;18.10;48.00;;;;;;6291312;28;20240;-78
2024/03/23 08:44:27;;;;;;;4.13;2.42;;;18.00;48.20;;;;;;6292074;28;20020;-78
2024/03/23 08:47:28;;;;;;;1.42;1.20;;;18.10;48.40;;;;;;6290940;28;20060;-77
2024/03/23 08:50:30;;;;;;;1.30;0.70;;;18.20;47.90;;;;;;6287351;28;20013;-77
2024/03/23 08:53:33;;;;;;;1.05;0.70;;;18.20;46.80;;;;;;6294148;28;20123;-77
2024/03/23 08:56:35;;;;;;;2.13;0.65;;;18.10;46.40;;;;;;6273985;28;20028;-77
2024/03/23 08:59:37;;;;;;;3.80;0.80;;;18.00;46.20;;;;;;6274685;28;20484;-77
2024/03/23 09:02:38;;;;;;;0.82;0.40;;;17.90;46.10;;;;;;6274158;28;20021;-79
2024/03/23 09:05:39;;;;;;;3.85;0.90;;;17.80;46.00;;;;;;6274080;28;20056;-76
2024/03/23 09:08:41;;;;;;;2.80;0.50;;;17.80;46.00;;;;;;6271590;28;20039;-76
2024/03/23 09:11:42;;;;;;;0.45;0.30;;;17.80;45.80;;;;;;6269535;28;20110;-79
2024/03/23 09:14:44;;;;;;;3.08;0.52;;;17.90;45.50;;;;;;6287601;28;20031;-78
2024/03/23 09:17:44;;;;;;;1.73;0.40;;;17.90;45.30;;;;;;6288495;28;20126;-77
2024/03/23 09:20:45;;;;;;;2.38;0.65;;;18.00;45.10;;;;;;6289022;28;20016;-77
2024/03/23 09:23:47;;;;;;;9.23;0.63;;;17.90;45.00;;;;;;6282712;28;20013;-78
2024/03/23 09:26:48;;;;;;;1.25;0.43;;;17.90;45.00;;;;;;6279661;28;20033;-80
2024/03/23 09:29:49;;;;;;;4.72;0.57;;;17.90;44.80;;;;;;6282190;28;20555;-78
2024/03/23 09:32:51;;;;;;;2.08;0.68;;;17.80;44.20;;;;;;6281783;28;20397;-81
2024/03/23 09:35:56;;;;;;;4.90;0.80;;;17.60;43.70;;;;;;6279511;28;20017;-80
2024/03/23 09:38:57;;;;;;;1.58;0.80;;;17.70;43.50;;;;;;6287462;28;20090;-81
2024/03/23 09:41:58;;;;;;;5.65;0.70;;;17.40;43.10;;;;;;6296860;28;20106;-81
2024/03/23 09:45:00;;;;;;;5.85;0.93;;;17.20;42.80;;;;;;6265380;28;20117;-80
2024/03/23 09:48:01;;;;;;;5.82;1.13;;;17.00;43.20;;;;;;6260844;28;20036;-80
2024/03/23 09:51:04;;;;;;;4.85;0.73;;;16.80;43.50;;;;;;6271711;28;20077;-78
2024/03/23 09:54:05;;;;;;;4.88;0.70;;;16.70;43.70;;;;;;6293874;28;20017;-78
2024/03/23 09:57:05;;;;;;;4.45;0.80;;;16.80;43.70;;;;;;6286690;28;20028;-77
2024/03/23 10:00:08;;;;;;;7.75;1.00;;;16.70;44.10;;;;;;6284218;28;20093;-78
2024/03/23 10:05:39;;;;;;;3.58;0.80;;;16.70;43.40;;;;;;6279834;27;1749728;-79
2024/03/23 10:08:43;;;;;;;7.18;1.17;;;16.80;42.50;;;;;;6310991;28;20024;-78
2024/03/23 10:11:48;;;;;;;3.70;0.77;;;16.70;42.20;;;;;;6267861;28;20047;-76
2024/03/23 10:14:51;;;;;;;5.47;1.27;;;16.60;42.10;;;;;;6276750;28;20039;-79
2024/03/23 10:17:54;;;;;;;6.72;1.50;;;16.50;41.90;;;;;;6317827;28;20083;-79
2024/03/23 10:21:11;;;;;;;5.85;1.10;;;16.40;41.90;;;;;;6300464;28;20292;-79
2024/03/23 10:24:13;;;;;;;4.20;0.95;;;16.40;41.70;;;;;;6289856;28;20042;-80
2024/03/23 10:27:19;;;;;;;10.77;1.42;;;16.30;42.00;;;;;;6290870;28;20020;-78
2024/03/23 10:30:27;;;;;;;1.27;0.90;;;16.30;41.30;;;;;;6280729;28;20415;-78
2024/03/23 10:33:28;;;;;;;4.47;0.60;;;16.20;41.00;;;;;;6293255;28;20078;-79
2024/03/23 10:36:30;;;;;;;2.53;0.85;;;16.30;41.20;;;;;;6289467;28;20513;-78
2024/03/23 10:39:33;;;;;;;9.07;1.40;;;16.20;40.90;;;;;;6297415;28;20020;-79
2024/03/23 10:42:34;;;;;;;5.60;1.30;;;16.30;40.40;;;;;;6284986;28;20061;-79
2024/03/23 10:45:37;;;;;;;10.23;0.93;;;16.50;39.80;;;;;;6313476;28;20115;-79
2024/03/23 10:48:38;;;;;;;0.98;0.73;;;16.70;39.20;;;;;;6310392;28;20019;-79
2024/03/23 10:51:39;;;;;;;4.93;1.42;;;16.90;39.10;;;;;;6301355;28;20035;-79
2024/03/23 10:54:44;;;;;;;1.98;0.80;;;17.20;38.40;;;;;;6295921;28;20024;-79
2024/03/23 10:57:51;;;;;;;4.90;0.90;;;17.40;37.80;;;;;;6281797;28;20555;-79
2024/03/23 11:00:53;;;;;;;3.10;0.57;;;17.60;37.10;;;;;;6288054;28;20468;-79
2024/03/23 11:03:54;;;;;;;4.05;1.17;;;17.80;36.60;;;;;;6283454;28;20133;-78
2024/03/23 11:06:55;;;;;;;4.95;1.02;;;17.90;35.50;;;;;;6301415;28;20029;-78
2024/03/23 11:09:56;;;;;;;2.47;0.90;;;18.00;35.20;;;;;;6285539;28;20020;-80
2024/03/23 11:12:58;;;;;;;3.53;0.73;;;18.00;35.40;;;;;;6320601;28;20257;-80
2024/03/23 11:16:17;;;;;;;6.38;1.13;;;18.20;35.50;;;;;;6280138;28;20527;-80
2024/03/23 11:19:57;;;;;;;5.35;1.35;;;18.30;34.90;;;;;;6284949;28;20077;-79
2024/03/23 11:22:59;;;;;;;6.35;1.10;;;18.30;34.60;;;;;;6273226;28;20123;-78
2024/03/23 11:26:00;;;;;;;4.82;1.42;;;18.30;34.60;;;;;;6269577;28;20021;-77
2024/03/23 11:29:12;;;;;;;3.80;1.30;;;18.40;34.50;;;;;;6270336;28;20386;-79
2024/03/23 11:32:15;;;;;;;3.03;1.05;;;18.40;34.60;;;;;;6255146;28;20471;-78
2024/03/23 11:35:33;;;;;;;11.50;1.35;;;18.60;34.00;;;;;;6275611;28;20016;-78
2024/03/23 11:38:38;;;;;;;4.05;1.00;;;18.80;33.80;;;;;;6291663;28;20081;-78
2024/03/23 11:41:49;;;;;;;4.07;1.27;;;19.10;33.40;;;;;;6283907;28;20060;-79
2024/03/23 11:44:50;;;;;;;4.55;1.33;;;19.60;32.70;;;;;;6291358;28;20040;-79
2024/03/23 11:48:08;;;;;;;4.70;1.10;;;20.00;31.70;;;;;;6285436;28;20411;-79
2024/03/23 11:51:10;;;;;;;;;;;20.40;31.40;;;;;;6288420;28;20043;-77
2024/03/23 11:54:11;;;;;;;4.20;1.15;;;20.70;30.30;;;;;;6268047;28;20108;-79
2024/03/23 11:57:12;;;;;;;2.53;0.80;;;21.00;29.30;;;;;;6247839;28;20087;-77
2024/03/23 12:00:24;;;;;;;7.30;1.30;;;21.20;29.30;;;;;;6267975;28;20101;-78
2024/03/23 12:03:28;;;;;;;8.05;1.08;;;21.50;28.80;;;;;;6259417;28;20511;-79
2024/03/23 12:06:30;;;;;;;5.22;1.38;;;21.50;28.50;;;;;;6296531;28;20021;-79
2024/03/23 12:09:31;;;;;;;5.13;1.00;;;21.60;28.20;;;;;;6272796;28;20452;-80
2024/03/23 12:12:32;;;;;;;6.43;1.63;;;21.90;27.70;;;;;;6274055;28;20117;-79
2024/03/23 12:15:34;;;;;;;8.38;1.42;;;22.10;27.30;;;;;;6274354;28;20436;-80
2024/03/23 12:18:34;;;;;;;3.13;0.93;;;22.40;26.80;;;;;;6249075;28;20040;-79
2024/03/23 12:21:36;;;;;;;4.05;0.88;;;22.50;26.20;;;;;;6290548;28;20020;-80
2024/03/23 12:24:38;;;;;;;9.63;1.00;;;22.70;25.70;;;;;;6289843;28;20371;-80
2024/03/23 12:27:40;;;;;;;3.53;1.10;;;23.00;25.50;;;;;;6276087;28;20023;-80
2024/03/23 12:30:42;;;;;;;3.50;0.73;;;23.30;25.10;;;;;;6288623;28;20558;-80
2024/03/23 12:33:44;;;;;;;2.17;0.80;;;23.90;24.90;;;;;;6306769;28;20012;-79
2024/03/23 12:36:46;;;;;;;3.42;1.00;;;24.60;24.30;;;;;;6260144;28;20499;-79
2024/03/23 12:39:48;;;;;;;1.88;0.80;;;25.20;23.60;;;;;;6273427;28;20061;-76
2024/03/23 12:42:49;;;;;;;2.90;0.80;;;25.70;23.00;;;;;;6284499;28;20491;-77
2024/03/23 12:45:52;;;;;;;6.55;1.38;;;26.10;22.50;;;;;;6287645;28;20043;-75
2024/03/23 12:48:53;;;;;;;6.65;1.42;;;26.20;22.00;;;;;;6274002;28;20063;-76
2024/03/23 12:51:56;;;;;;;3.80;0.80;;;26.30;21.70;;;;;;6275786;28;20039;-76
2024/03/23 12:54:58;;;;;;;2.80;0.93;;;26.30;21.20;;;;;;6290427;28;20028;-73
2024/03/23 12:57:59;;;;;;;5.47;1.08;;;26.20;21.30;;;;;;6285429;28;20037;-76
2024/03/23 13:01:00;;;;;;;4.05;0.90;;;26.20;20.80;;;;;;6259964;28;20135;-76
2024/03/23 13:04:02;;;;;;;2.90;1.38;;;26.30;21.00;;;;;;6285895;28;20039;-75
2024/03/23 13:07:03;;;;;;;6.63;1.63;;;26.50;20.80;;;;;;6307840;28;20099;-76
2024/03/23 13:10:05;;;;;;;2.72;0.77;;;26.40;20.90;;;;;;6269793;28;20024;-77
2024/03/23 13:13:07;;;;;;;2.20;1.17;;;26.40;20.50;;;;;;6303924;28;20047;-74
2024/03/23 13:16:08;;;;;;;7.32;1.10;;;26.20;20.40;;;;;;6270170;28;20458;-76
2024/03/23 13:19:11;;;;;;;3.55;0.82;;;26.10;20.20;;;;;;6270722;28;20028;-76
2024/03/23 13:22:11;;;;;;;4.15;1.13;;;25.90;20.40;;;;;;6285479;28;20068;-78
2024/03/23 13:25:13;;;;;;;6.32;1.27;;;25.90;20.40;;;;;;6289566;28;20040;-77
2024/03/23 13:28:16;;;;;;;7.15;0.98;;;26.10;20.40;;;;;;6285862;28;20027;-76
2024/03/23 13:31:16;;;;;;;2.60;0.90;;;26.30;20.30;;;;;;6256426;28;20023;-76
2024/03/23 13:34:18;;;;;;;6.50;1.45;;;26.50;19.90;;;;;;6258007;28;20404;-77
2024/03/23 13:37:19;;;;;;;3.45;0.95;;;26.50;19.90;;;;;;6250617;28;20032;-76
2024/03/23 13:40:20;;;;;;;4.13;0.80;;;26.70;19.60;;;;;;6280582;28;20054;-77
2024/03/23 13:43:21;;;;;;;5.80;0.90;;;26.40;19.60;;;;;;6294390;28;20034;-77
2024/03/23 13:46:21;;;;;;;10.65;1.00;;;25.50;20.20;;;;;;6287845;28;20462;-75
2024/03/23 13:49:32;;;;;;;8.43;1.17;;;24.50;20.80;;;;;;6269821;28;20107;-76
2024/03/23 13:52:32;;;;;;;4.25;0.75;;;23.30;21.30;;;;;;6283643;28;20123;-76
2024/03/23 13:55:35;;;;;;;1.48;0.50;;;22.30;22.10;;;;;;6287369;28;20028;-77
2024/03/23 13:58:36;;;;;;;4.63;0.90;;;21.50;22.80;;;;;;6286278;28;20023;-77
2024/03/23 14:01:38;;;;;;;2.20;0.98;;;21.00;23.30;;;;;;6268643;28;20024;-76
2024/03/23 14:04:39;;;;;;;3.47;1.10;;;20.60;23.80;;;;;;6280605;28;20414;-75
2024/03/23 14:07:40;;;;;;;4.18;1.10;;;20.20;24.10;;;;;;6295074;28;20048;-76
2024/03/23 14:10:41;;;;;;;2.67;0.60;;;19.90;24.60;;;;;;6269694;28;20020;-77
2024/03/23 14:13:42;;;;;;;1.88;0.50;;;19.50;25.00;;;;;;6287932;28;20107;-75
2024/03/23 14:16:45;;;;;;;5.18;0.80;;;19.30;25.00;;;;;;6288271;28;20037;-77
2024/03/23 14:19:46;;;;;;;11.40;1.15;;;19.10;25.30;;;;;;6297758;28;20176;-76
2024/03/23 14:22:48;;;;;;;11.93;1.00;;;19.00;25.60;;;;;;6286505;28;20020;-75
2024/03/23 14:25:49;;;;;;;8.05;1.30;;;18.90;25.70;;;;;;6282425;28;20028;-76
2024/03/23 14:28:50;;;;;;;4.30;0.70;;;18.80;25.70;;;;;;6266849;28;20598;-77
2024/03/23 14:31:51;;;;;;;3.45;0.50;;;18.70;25.90;;;;;;6284829;28;20119;-76
2024/03/23 14:34:54;;;;;;;3.08;0.80;;;18.60;25.90;;;;;;6288921;28;20012;-75
2024/03/23 14:37:55;;;;;;;2.47;0.77;;;18.50;25.90;;;;;;6280265;28;20036;-77
2024/03/23 14:41:01;;;;;;;2.13;1.13;;;18.40;26.00;;;;;;6278467;28;20424;-76
2024/03/23 14:44:01;;;;;;;5.22;0.93;;;18.40;25.90;;;;;;6265555;28;20075;-76
2024/03/23 14:47:03;;;;;;;5.13;0.80;;;18.40;25.40;;;;;;6287024;28;20164;-77
2024/03/23 14:50:04;;;;;;;10.48;0.70;;;18.40;25.70;;;;;;6288772;28;20027;-76
2024/03/23 14:53:05;;;;;;;2.95;0.73;;;18.30;25.40;;;;;;6291369;28;20650;-75
2024/03/23 14:56:08;;;;;;;11.90;0.90;;;18.40;25.40;;;;;;6291500;28;20024;-75
2024/03/23 14:59:08;;;;;;;5.25;0.93;;;18.40;25.20;;;;;;6295925;28;20131;-76
2024/03/23 15:02:12;;;;;;;2.35;0.80;;;18.40;25.30;;;;;;6289257;28;20509;-78
2024/03/23 15:05:13;;;;;;;2.00;0.45;;;18.30;25.50;;;;;;6288632;28;20735;-76
2024/03/23 15:08:15;;;;;;;6.82;0.75;;;18.30;25.20;;;;;;6310240;28;20056;-76
2024/03/23 15:11:19;;;;;;;2.63;0.88;;;18.20;25.10;;;;;;6265713;28;20042;-74
2024/03/23 15:14:20;;;;;;;3.05;0.80;;;18.20;25.30;;;;;;6267529;28;20042;-76
2024/03/23 15:17:21;;;;;;;2.35;0.80;;;18.20;25.60;;;;;;6277956;28;20032;-77
2024/03/23 15:20:22;;;;;;;1.38;0.35;;;18.20;25.60;;;;;;6252536;28;20032;-75
2024/03/23 15:23:23;;;;;;;3.70;0.80;;;18.30;25.70;;;;;;6274786;28;20032;-75
2024/03/23 15:26:25;;;;;;;0.82;0.35;;;18.30;25.60;;;;;;6272295;28;20122;-76
2024/03/23 15:29:25;;;;;;;2.22;0.47;;;18.30;25.60;;;;;;6307506;28;20169;-75
2024/03/23 15:32:26;;;;;;;3.47;0.98;;;18.20;25.60;;;;;;6289613;28;20016;-76
2024/03/23 15:35:30;;;;;;;2.65;0.70;;;18.30;25.60;;;;;;6300252;28;20063;-75
2024/03/23 15:38:34;;;;;;;1.65;0.57;;;18.30;25.50;;;;;;6285264;28;20477;-75
2024/03/23 15:41:35;;;;;;;6.18;1.20;;;18.30;25.30;;;;;;6303474;28;20094;-76
2024/03/23 15:44:36;;;;;;;0.90;0.50;;;18.40;25.30;;;;;;6290370;28;20452;-77
2024/03/23 15:47:39;;;;;;;3.50;0.63;;;18.50;25.30;;;;;;6291641;28;20034;-77